sensor_id;sensor_type;location;lat;lon;timestamp;P1;durP1;ratioP1;P2;durP2;ratioP2
77078;SDS011;66004;55.096;38.760;2023-08-24T00:01:09;11.18;;;5.43;;
77078;SDS011;66004;55.096;38.760;2023-08-24T00:03:37;8.02;;;4.28;;
77078;SDS011;66004;55.096;38.760;2023-08-24T00:06:03;8.30;;;4.20;;
77078;SDS011;66004;55.096;38.760;2023-08-24T00:08:28;8.50;;;4.20;;
77078;SDS011;66004;55.096;38.760;2023-08-24T00:10:54;8.13;;;4.03;;
77078;SDS011;66004;55.096;38.760;2023-08-24T00:13:20;11.70;;;4.55;;
77078;SDS011;66004;55.096;38.760;2023-08-24T00:15:45;7.55;;;4.43;;
77078;SDS011;66004;55.096;38.760;2023-08-24T00:18:11;9.77;;;4.25;;
77078;SDS011;66004;55.096;38.760;2023-08-24T00:20:37;6.82;;;4.25;;
77078;SDS011;66004;55.096;38.760;2023-08-24T00:23:03;11.20;;;4.25;;
77078;SDS011;66004;55.096;38.760;2023-08-24T00:25:29;11.15;;;4.20;;
77078;SDS011;66004;55.096;38.760;2023-08-24T00:27:55;5.68;;;3.75;;
77078;SDS011;66004;55.096;38.760;2023-08-24T00:30:21;8.18;;;4.00;;
77078;SDS011;66004;55.096;38.760;2023-08-24T00:32:48;7.70;;;4.03;;
77078;SDS011;66004;55.096;38.760;2023-08-24T00:35:14;10.13;;;4.22;;
77078;SDS011;66004;55.096;38.760;2023-08-24T00:37:40;10.65;;;3.95;;
77078;SDS011;66004;55.096;38.760;2023-08-24T00:40:06;7.55;;;4.00;;
77078;SDS011;66004;55.096;38.760;2023-08-24T00:42:39;10.32;;;4.00;;
77078;SDS011;66004;55.096;38.760;2023-08-24T00:45:05;8.15;;;4.15;;
77078;SDS011;66004;55.096;38.760;2023-08-24T00:47:32;7.32;;;4.10;;
77078;SDS011;66004;55.096;38.760;2023-08-24T00:49:59;7.43;;;3.83;;
77078;SDS011;66004;55.096;38.760;2023-08-24T00:52:25;9.40;;;4.32;;
77078;SDS011;66004;55.096;38.760;2023-08-24T00:54:53;7.22;;;4.00;;
77078;SDS011;66004;55.096;38.760;2023-08-24T00:57:19;10.32;;;3.90;;
77078;SDS011;66004;55.096;38.760;2023-08-24T00:59:45;6.05;;;3.97;;
77078;SDS011;66004;55.096;38.760;2023-08-24T01:02:12;9.05;;;3.70;;
77078;SDS011;66004;55.096;38.760;2023-08-24T01:04:37;8.00;;;3.92;;
77078;SDS011;66004;55.096;38.760;2023-08-24T01:07:06;7.00;;;3.92;;
77078;SDS011;66004;55.096;38.760;2023-08-24T01:09:33;6.97;;;3.60;;
77078;SDS011;66004;55.096;38.760;2023-08-24T01:12:32;8.50;;;3.70;;
77078;SDS011;66004;55.096;38.760;2023-08-24T01:15:13;8.15;;;3.47;;
77078;SDS011;66004;55.096;38.760;2023-08-24T01:17:42;9.70;;;4.13;;
77078;SDS011;66004;55.096;38.760;2023-08-24T01:20:09;8.05;;;3.90;;
77078;SDS011;66004;55.096;38.760;2023-08-24T01:25:35;8.55;;;3.88;;
77078;SDS011;66004;55.096;38.760;2023-08-24T01:28:05;6.38;;;3.78;;
77078;SDS011;66004;55.096;38.760;2023-08-24T01:30:33;9.95;;;4.20;;
77078;SDS011;66004;55.096;38.760;2023-08-24T01:33:03;7.63;;;4.40;;
77078;SDS011;66004;55.096;38.760;2023-08-24T01:35:29;7.47;;;4.05;;
77078;SDS011;66004;55.096;38.760;2023-08-24T01:37:55;14.85;;;4.38;;
77078;SDS011;66004;55.096;38.760;2023-08-24T01:40:26;8.48;;;3.95;;
77078;SDS011;66004;55.096;38.760;2023-08-24T01:43:03;8.10;;;4.30;;
77078;SDS011;66004;55.096;38.760;2023-08-24T01:47:57;8.55;;;3.92;;
77078;SDS011;66004;55.096;38.760;2023-08-24T01:50:25;9.25;;;4.20;;
77078;SDS011;66004;55.096;38.760;2023-08-24T01:52:51;10.70;;;4.05;;
77078;SDS011;66004;55.096;38.760;2023-08-24T01:55:18;16.38;;;4.35;;
77078;SDS011;66004;55.096;38.760;2023-08-24T01:57:44;11.45;;;4.13;;
77078;SDS011;66004;55.096;38.760;2023-08-24T02:00:09;12.60;;;4.95;;
77078;SDS011;66004;55.096;38.760;2023-08-24T02:02:35;7.80;;;3.90;;
77078;SDS011;66004;55.096;38.760;2023-08-24T02:05:02;7.38;;;3.90;;
77078;SDS011;66004;55.096;38.760;2023-08-24T02:07:28;7.70;;;3.70;;
77078;SDS011;66004;55.096;38.760;2023-08-24T02:09:54;7.22;;;3.78;;
77078;SDS011;66004;55.096;38.760;2023-08-24T02:12:19;7.38;;;4.03;;
77078;SDS011;66004;55.096;38.760;2023-08-24T02:14:45;6.47;;;3.53;;
77078;SDS011;66004;55.096;38.760;2023-08-24T02:17:10;7.53;;;4.15;;
77078;SDS011;66004;55.096;38.760;2023-08-24T02:19:36;10.07;;;3.95;;
77078;SDS011;66004;55.096;38.760;2023-08-24T02:22:02;6.63;;;3.53;;
77078;SDS011;66004;55.096;38.760;2023-08-24T02:24:27;7.03;;;3.70;;
77078;SDS011;66004;55.096;38.760;2023-08-24T02:26:53;7.93;;;3.30;;
77078;SDS011;66004;55.096;38.760;2023-08-24T02:29:18;6.72;;;3.33;;
77078;SDS011;66004;55.096;38.760;2023-08-24T02:31:44;6.47;;;3.60;;
77078;SDS011;66004;55.096;38.760;2023-08-24T02:34:09;7.00;;;3.80;;
77078;SDS011;66004;55.096;38.760;2023-08-24T02:36:35;7.32;;;4.13;;
77078;SDS011;66004;55.096;38.760;2023-08-24T02:39:01;8.40;;;3.60;;
77078;SDS011;66004;55.096;38.760;2023-08-24T02:41:27;6.13;;;3.92;;
77078;SDS011;66004;55.096;38.760;2023-08-24T02:43:52;7.35;;;3.85;;
77078;SDS011;66004;55.096;38.760;2023-08-24T02:46:20;6.55;;;3.38;;
77078;SDS011;66004;55.096;38.760;2023-08-24T02:48:46;4.65;;;3.20;;
77078;SDS011;66004;55.096;38.760;2023-08-24T02:51:11;8.02;;;3.97;;
77078;SDS011;66004;55.096;38.760;2023-08-24T02:53:37;7.78;;;3.85;;
77078;SDS011;66004;55.096;38.760;2023-08-24T02:56:02;8.57;;;3.67;;
77078;SDS011;66004;55.096;38.760;2023-08-24T02:58:28;7.00;;;3.45;;
77078;SDS011;66004;55.096;38.760;2023-08-24T03:00:55;11.35;;;3.90;;
77078;SDS011;66004;55.096;38.760;2023-08-24T03:03:20;7.03;;;3.55;;
77078;SDS011;66004;55.096;38.760;2023-08-24T03:05:59;14.65;;;4.25;;
77078;SDS011;66004;55.096;38.760;2023-08-24T03:08:26;8.18;;;3.40;;
77078;SDS011;66004;55.096;38.760;2023-08-24T03:10:52;4.22;;;2.85;;
77078;SDS011;66004;55.096;38.760;2023-08-24T03:13:18;6.65;;;3.75;;
77078;SDS011;66004;55.096;38.760;2023-08-24T03:15:43;6.18;;;3.25;;
77078;SDS011;66004;55.096;38.760;2023-08-24T03:18:12;9.60;;;3.50;;
77078;SDS011;66004;55.096;38.760;2023-08-24T03:20:39;10.60;;;3.83;;
77078;SDS011;66004;55.096;38.760;2023-08-24T03:23:05;13.25;;;4.03;;
77078;SDS011;66004;55.096;38.760;2023-08-24T03:25:34;9.52;;;3.53;;
77078;SDS011;66004;55.096;38.760;2023-08-24T03:28:01;17.90;;;4.43;;
77078;SDS011;66004;55.096;38.760;2023-08-24T03:30:27;6.78;;;3.88;;
77078;SDS011;66004;55.096;38.760;2023-08-24T03:32:52;6.68;;;3.42;;
77078;SDS011;66004;55.096;38.760;2023-08-24T03:35:18;10.82;;;3.53;;
77078;SDS011;66004;55.096;38.760;2023-08-24T03:37:43;9.02;;;3.70;;
77078;SDS011;66004;55.096;38.760;2023-08-24T03:40:09;9.30;;;3.75;;
77078;SDS011;66004;55.096;38.760;2023-08-24T03:42:35;9.90;;;3.42;;
77078;SDS011;66004;55.096;38.760;2023-08-24T03:45:00;6.07;;;3.58;;
77078;SDS011;66004;55.096;38.760;2023-08-24T03:47:26;8.38;;;4.30;;
77078;SDS011;66004;55.096;38.760;2023-08-24T03:49:51;11.35;;;4.28;;
77078;SDS011;66004;55.096;38.760;2023-08-24T03:52:17;7.30;;;3.70;;
77078;SDS011;66004;55.096;38.760;2023-08-24T03:54:43;11.65;;;4.35;;
77078;SDS011;66004;55.096;38.760;2023-08-24T03:57:08;10.20;;;3.53;;
77078;SDS011;66004;55.096;38.760;2023-08-24T03:59:34;11.30;;;4.10;;
77078;SDS011;66004;55.096;38.760;2023-08-24T04:01:59;7.47;;;4.00;;
77078;SDS011;66004;55.096;38.760;2023-08-24T04:04:27;9.93;;;4.50;;
77078;SDS011;66004;55.096;38.760;2023-08-24T04:06:53;10.30;;;4.65;;
77078;SDS011;66004;55.096;38.760;2023-08-24T04:09:18;8.73;;;4.25;;
77078;SDS011;66004;55.096;38.760;2023-08-24T04:11:44;9.43;;;4.57;;
77078;SDS011;66004;55.096;38.760;2023-08-24T04:14:09;8.43;;;4.35;;
77078;SDS011;66004;55.096;38.760;2023-08-24T04:16:35;8.98;;;4.43;;
77078;SDS011;66004;55.096;38.760;2023-08-24T04:19:01;11.05;;;4.63;;
77078;SDS011;66004;55.096;38.760;2023-08-24T04:21:26;10.13;;;4.55;;
77078;SDS011;66004;55.096;38.760;2023-08-24T04:23:52;11.70;;;5.70;;
77078;SDS011;66004;55.096;38.760;2023-08-24T04:26:18;11.45;;;5.38;;
77078;SDS011;66004;55.096;38.760;2023-08-24T04:28:43;12.23;;;4.78;;
77078;SDS011;66004;55.096;38.760;2023-08-24T04:31:09;12.23;;;5.22;;
77078;SDS011;66004;55.096;38.760;2023-08-24T04:33:35;12.93;;;5.40;;
77078;SDS011;66004;55.096;38.760;2023-08-24T04:36:01;11.75;;;6.13;;
77078;SDS011;66004;55.096;38.760;2023-08-24T04:38:28;16.65;;;5.90;;
77078;SDS011;66004;55.096;38.760;2023-08-24T04:40:55;15.25;;;6.18;;
77078;SDS011;66004;55.096;38.760;2023-08-24T04:43:22;13.25;;;6.22;;
77078;SDS011;66004;55.096;38.760;2023-08-24T04:45:48;15.05;;;6.35;;
77078;SDS011;66004;55.096;38.760;2023-08-24T04:48:17;14.52;;;6.63;;
77078;SDS011;66004;55.096;38.760;2023-08-24T04:50:43;12.80;;;5.85;;
77078;SDS011;66004;55.096;38.760;2023-08-24T04:53:09;15.05;;;6.50;;
77078;SDS011;66004;55.096;38.760;2023-08-24T04:55:36;16.58;;;6.57;;
77078;SDS011;66004;55.096;38.760;2023-08-24T04:58:02;12.57;;;6.22;;
77078;SDS011;66004;55.096;38.760;2023-08-24T05:00:27;17.08;;;7.05;;
77078;SDS011;66004;55.096;38.760;2023-08-24T05:02:53;16.90;;;6.65;;
77078;SDS011;66004;55.096;38.760;2023-08-24T05:05:18;19.35;;;7.85;;
77078;SDS011;66004;55.096;38.760;2023-08-24T05:07:44;20.02;;;7.90;;
77078;SDS011;66004;55.096;38.760;2023-08-24T05:10:09;18.70;;;7.35;;
77078;SDS011;66004;55.096;38.760;2023-08-24T05:12:35;16.17;;;7.47;;
77078;SDS011;66004;55.096;38.760;2023-08-24T05:15:04;19.85;;;8.00;;
77078;SDS011;66004;55.096;38.760;2023-08-24T05:17:30;21.13;;;7.78;;
77078;SDS011;66004;55.096;38.760;2023-08-24T05:19:57;18.27;;;7.50;;
77078;SDS011;66004;55.096;38.760;2023-08-24T05:22:23;16.67;;;7.75;;
77078;SDS011;66004;55.096;38.760;2023-08-24T05:24:48;20.15;;;8.20;;
77078;SDS011;66004;55.096;38.760;2023-08-24T05:27:14;22.50;;;7.93;;
77078;SDS011;66004;55.096;38.760;2023-08-24T05:29:40;17.73;;;8.02;;
77078;SDS011;66004;55.096;38.760;2023-08-24T05:32:06;21.27;;;7.75;;
77078;SDS011;66004;55.096;38.760;2023-08-24T05:34:31;14.00;;;7.43;;
77078;SDS011;66004;55.096;38.760;2023-08-24T05:36:57;23.95;;;9.23;;
77078;SDS011;66004;55.096;38.760;2023-08-24T05:39:22;19.80;;;8.10;;
77078;SDS011;66004;55.096;38.760;2023-08-24T05:41:51;16.23;;;7.80;;
77078;SDS011;66004;55.096;38.760;2023-08-24T05:44:18;15.35;;;7.05;;
77078;SDS011;66004;55.096;38.760;2023-08-24T05:46:44;19.15;;;7.15;;
77078;SDS011;66004;55.096;38.760;2023-08-24T05:49:11;21.10;;;9.88;;
77078;SDS011;66004;55.096;38.760;2023-08-24T05:51:36;17.70;;;7.00;;
77078;SDS011;66004;55.096;38.760;2023-08-24T05:54:02;18.13;;;7.13;;
77078;SDS011;66004;55.096;38.760;2023-08-24T05:56:28;15.82;;;6.97;;
77078;SDS011;66004;55.096;38.760;2023-08-24T05:58:53;18.95;;;7.28;;
77078;SDS011;66004;55.096;38.760;2023-08-24T06:01:19;17.75;;;7.53;;
77078;SDS011;66004;55.096;38.760;2023-08-24T06:03:45;18.80;;;7.70;;
77078;SDS011;66004;55.096;38.760;2023-08-24T06:06:10;16.90;;;7.15;;
77078;SDS011;66004;55.096;38.760;2023-08-24T06:08:36;15.48;;;7.03;;
77078;SDS011;66004;55.096;38.760;2023-08-24T06:11:01;22.15;;;8.68;;
77078;SDS011;66004;55.096;38.760;2023-08-24T06:13:27;18.75;;;8.07;;
77078;SDS011;66004;55.096;38.760;2023-08-24T06:15:53;19.88;;;8.15;;
77078;SDS011;66004;55.096;38.760;2023-08-24T06:18:19;20.48;;;7.32;;
77078;SDS011;66004;55.096;38.760;2023-08-24T06:20:45;17.17;;;7.55;;
77078;SDS011;66004;55.096;38.760;2023-08-24T06:23:11;16.92;;;7.45;;
77078;SDS011;66004;55.096;38.760;2023-08-24T06:25:38;16.25;;;7.43;;
77078;SDS011;66004;55.096;38.760;2023-08-24T06:28:04;19.58;;;7.38;;
77078;SDS011;66004;55.096;38.760;2023-08-24T06:30:30;17.05;;;7.53;;
77078;SDS011;66004;55.096;38.760;2023-08-24T06:33:02;18.30;;;7.80;;
77078;SDS011;66004;55.096;38.760;2023-08-24T06:35:29;17.90;;;8.13;;
77078;SDS011;66004;55.096;38.760;2023-08-24T06:37:54;15.18;;;7.53;;
77078;SDS011;66004;55.096;38.760;2023-08-24T06:40:20;16.45;;;8.07;;
77078;SDS011;66004;55.096;38.760;2023-08-24T06:42:45;17.52;;;8.50;;
77078;SDS011;66004;55.096;38.760;2023-08-24T06:45:11;18.58;;;8.88;;
77078;SDS011;66004;55.096;38.760;2023-08-24T06:47:36;16.70;;;7.00;;
77078;SDS011;66004;55.096;38.760;2023-08-24T06:50:02;14.65;;;6.07;;
77078;SDS011;66004;55.096;38.760;2023-08-24T06:52:28;12.50;;;6.80;;
77078;SDS011;66004;55.096;38.760;2023-08-24T06:54:53;14.27;;;6.40;;
77078;SDS011;66004;55.096;38.760;2023-08-24T06:57:21;13.23;;;6.47;;
77078;SDS011;66004;55.096;38.760;2023-08-24T06:59:46;11.43;;;5.88;;
77078;SDS011;66004;55.096;38.760;2023-08-24T07:02:12;12.07;;;5.80;;
77078;SDS011;66004;55.096;38.760;2023-08-24T07:04:37;14.57;;;6.20;;
77078;SDS011;66004;55.096;38.760;2023-08-24T07:07:05;11.77;;;5.63;;
